Time;durP1;ratioP1;P1;durP2;ratioP2;P2;SDS_P1;SDS_P2;PMS_P1;PMS_P2;Temp;Humidity;BMP_temperature;BMP_pressure;BME280_temperature;BME280_humidity;BME280_pressure;Samples;Min_cycle;Max_cycle;Signal;HPM_P1;HPM_P2
2021/03/16 00:01:31;;;;;;;22.80;5.53;;;5.70;84.50;;;;;;5000437;28;20080;-78
2021/03/16 00:03:57;;;;;;;21.67;5.60;;;5.70;84.50;;;;;;5005669;28;20041;-79
2021/03/16 00:06:22;;;;;;;16.55;4.57;;;5.70;84.60;;;;;;5001900;28;20121;-78
2021/03/16 00:08:48;;;;;;;18.17;4.72;;;5.70;84.60;;;;;;5015322;28;20092;-79
2021/03/16 00:11:14;;;;;;;20.70;5.38;;;5.70;84.70;;;;;;5003714;28;20133;-79
2021/03/16 00:13:39;;;;;;;18.02;5.55;;;5.70;84.80;;;;;;5004249;28;20095;-79
2021/03/16 00:16:05;;;;;;;20.58;4.95;;;5.80;84.80;;;;;;5005716;28;20040;-79
2021/03/16 00:18:31;;;;;;;19.10;4.68;;;5.80;84.90;;;;;;5020358;28;20048;-78
2021/03/16 00:20:57;;;;;;;14.40;4.40;;;5.80;84.90;;;;;;5021301;28;20037;-79
2021/03/16 00:23:23;;;;;;;22.10;5.32;;;5.90;84.90;;;;;;5006246;28;20034;-79
2021/03/16 00:25:48;;;;;;;17.95;4.68;;;5.90;84.90;;;;;;5009193;28;20484;-79
2021/03/16 00:28:14;;;;;;;16.02;4.40;;;5.90;85.00;;;;;;5007748;28;20033;-79
2021/03/16 00:30:39;;;;;;;21.50;4.95;;;5.90;85.10;;;;;;5008287;28;20044;-79
2021/03/16 00:33:05;;;;;;;22.30;4.97;;;5.90;85.00;;;;;;5012446;28;20123;-78
2021/03/16 00:35:31;;;;;;;19.42;5.05;;;5.90;84.90;;;;;;5005320;28;20458;-79
2021/03/16 00:37:56;;;;;;;24.20;4.95;;;5.80;85.10;;;;;;5011158;28;20033;-79
2021/03/16 00:40:22;;;;;;;18.38;4.85;;;5.70;85.10;;;;;;5005172;28;20034;-79
2021/03/16 00:42:48;;;;;;;18.98;4.47;;;5.80;85.30;;;;;;5008143;28;20049;-79
2021/03/16 00:45:14;;;;;;;23.13;4.85;;;5.70;85.20;;;;;;5007017;28;20437;-79
2021/03/16 00:47:40;;;;;;;20.90;5.38;;;5.70;85.40;;;;;;5000948;28;20129;-79
2021/03/16 00:50:08;;;;;;;19.25;4.43;;;5.70;85.30;;;;;;5005316;28;20049;-79
2021/03/16 00:52:34;;;;;;;16.67;4.30;;;5.60;85.20;;;;;;5005861;28;20038;-80
2021/03/16 00:55:00;;;;;;;16.33;3.90;;;5.60;85.40;;;;;;5003778;28;20084;-80
2021/03/16 00:57:25;;;;;;;18.10;4.65;;;5.60;85.40;;;;;;5006937;28;20085;-79
2021/03/16 00:59:51;;;;;;;16.15;4.20;;;5.60;85.60;;;;;;5002220;28;20034;-79
2021/03/16 01:02:18;;;;;;;18.00;4.18;;;5.50;85.40;;;;;;5003017;28;20081;-79
2021/03/16 01:04:47;;;;;;;24.40;5.20;;;5.50;85.70;;;;;;5007911;28;20036;-78
2021/03/16 01:07:13;;;;;;;17.67;4.07;;;5.40;85.60;;;;;;5001815;28;20034;-79
2021/03/16 01:09:39;;;;;;;18.83;5.18;;;5.40;85.80;;;;;;5001378;28;20084;-79
2021/03/16 01:12:06;;;;;;;17.13;4.35;;;5.40;85.70;;;;;;5005017;28;20046;-79
2021/03/16 01:14:33;;;;;;;19.08;4.30;;;5.30;85.80;;;;;;5011326;28;20076;-79
2021/03/16 01:16:58;;;;;;;16.15;4.30;;;5.20;85.90;;;;;;5008729;28;20042;-79
2021/03/16 01:19:25;;;;;;;22.80;4.97;;;5.10;85.90;;;;;;5008128;28;20389;-79
2021/03/16 01:21:50;;;;;;;17.27;4.43;;;5.10;86.30;;;;;;5008721;28;20033;-79
2021/03/16 01:24:16;;;;;;;24.00;5.75;;;5.20;86.40;;;;;;5007004;28;20124;-79
2021/03/16 01:26:42;;;;;;;17.58;4.38;;;5.20;86.40;;;;;;5010840;28;20065;-79
2021/03/16 01:29:07;;;;;;;16.98;5.20;;;5.20;86.30;;;;;;5014793;28;20041;-80
2021/03/16 01:31:33;;;;;;;22.65;5.40;;;5.30;86.30;;;;;;5010536;28;20037;-79
2021/03/16 01:33:59;;;;;;;17.40;4.70;;;5.30;86.20;;;;;;5016152;28;20030;-79
2021/03/16 01:36:24;;;;;;;22.73;5.53;;;5.30;86.20;;;;;;5001853;28;20038;-78
2021/03/16 01:38:50;;;;;;;21.15;4.85;;;5.30;86.10;;;;;;5011769;28;20492;-79
2021/03/16 01:41:15;;;;;;;21.60;5.15;;;5.30;86.10;;;;;;5006922;28;20041;-79
2021/03/16 01:43:41;;;;;;;17.95;4.82;;;5.30;86.20;;;;;;5008356;28;20065;-78
2021/03/16 01:46:08;;;;;;;15.30;4.75;;;5.20;86.20;;;;;;5007637;28;20046;-79
2021/03/16 01:48:36;;;;;;;19.63;4.53;;;5.20;86.20;;;;;;4999919;28;20028;-80
2021/03/16 01:51:06;;;;;;;22.58;5.22;;;5.10;86.30;;;;;;5006655;28;20531;-80
2021/03/16 01:53:32;;;;;;;25.25;5.13;;;5.10;86.30;;;;;;5005256;28;20033;-79
2021/03/16 01:55:58;;;;;;;20.33;5.60;;;5.10;86.50;;;;;;5011589;28;20026;-79
2021/03/16 01:58:24;;;;;;;22.23;5.65;;;5.10;86.50;;;;;;4999884;28;20474;-79
2021/03/16 02:00:49;;;;;;;20.85;4.88;;;5.10;86.50;;;;;;5007820;28;20033;-78
2021/03/16 02:03:18;;;;;;;23.13;5.72;;;5.10;86.50;;;;;;4998944;28;20042;-79
2021/03/16 02:05:44;;;;;;;22.77;5.78;;;5.10;86.50;;;;;;5004435;28;20073;-79
2021/03/16 02:08:31;;;;;;;24.70;5.18;;;5.10;86.50;;;;;;4997535;28;20022;-79
2021/03/16 02:11:15;;;;;;;19.35;4.75;;;5.10;86.50;;;;;;5013202;28;20026;-80
2021/03/16 02:13:52;;;;;;;24.97;4.80;;;5.10;86.50;;;;;;5013742;28;20683;-79
2021/03/16 02:16:23;;;;;;;20.52;4.50;;;5.00;86.40;;;;;;5006942;28;20284;-79
2021/03/16 02:18:52;;;;;;;21.85;4.88;;;5.00;86.40;;;;;;5009368;28;20050;-79
2021/03/16 02:21:45;;;;;;;27.73;5.65;;;5.00;86.40;;;;;;5004526;28;20112;-79
2021/03/16 02:24:38;;;;;;;19.17;4.63;;;4.90;86.60;;;;;;4999326;28;20041;-79
2021/03/16 02:27:10;;;;;;;22.10;4.70;;;5.00;86.60;;;;;;5003586;28;20042;-78
2021/03/16 02:29:43;;;;;;;25.33;5.30;;;5.00;86.60;;;;;;5010623;28;20041;-78
2021/03/16 02:32:16;;;;;;;16.98;3.95;;;5.10;86.60;;;;;;5004341;28;20045;-78
2021/03/16 02:34:45;;;;;;;17.73;4.82;;;5.10;86.60;;;;;;5003033;28;20038;-78
2021/03/16 02:37:12;;;;;;;21.30;4.68;;;5.10;86.50;;;;;;4995641;28;20066;-79
2021/03/16 02:39:40;;;;;;;20.30;4.50;;;5.10;86.50;;;;;;5005911;28;20518;-79
2021/03/16 02:42:08;;;;;;;15.52;4.25;;;5.10;86.40;;;;;;4994846;28;20188;-79
2021/03/16 02:44:34;;;;;;;20.65;4.28;;;5.20;86.30;;;;;;5009921;28;20169;-78
2021/03/16 02:47:02;;;;;;;18.63;4.28;;;5.20;86.20;;;;;;5005688;28;20034;-79
2021/03/16 02:49:28;;;;;;;21.00;4.70;;;5.20;86.20;;;;;;5014833;28;20575;-78
2021/03/16 02:51:55;;;;;;;15.32;4.90;;;5.10;86.20;;;;;;5002597;28;20075;-79
2021/03/16 02:54:21;;;;;;;25.30;4.53;;;5.10;86.20;;;;;;5024442;28;20052;-79
2021/03/16 02:56:49;;;;;;;19.75;5.13;;;5.10;86.30;;;;;;5001229;28;20026;-79
2021/03/16 02:59:16;;;;;;;18.17;4.53;;;5.20;86.40;;;;;;4997782;28;20034;-79
2021/03/16 03:01:44;;;;;;;19.35;4.50;;;5.10;86.40;;;;;;5002694;28;20155;-79
2021/03/16 03:04:11;;;;;;;23.02;5.10;;;5.20;86.40;;;;;;4999106;28;20038;-78
2021/03/16 03:06:39;;;;;;;19.40;5.43;;;5.20;86.40;;;;;;5007114;28;20116;-79
2021/03/16 03:09:06;;;;;;;20.17;4.45;;;5.20;86.30;;;;;;5002207;28;20033;-78
2021/03/16 03:11:33;;;;;;;17.73;4.97;;;5.20;86.40;;;;;;5004407;28;20087;-79
2021/03/16 03:14:00;;;;;;;19.13;4.50;;;5.20;86.50;;;;;;4999634;28;20061;-79
2021/03/16 03:16:27;;;;;;;27.17;5.15;;;5.20;86.50;;;;;;5015131;28;20057;-79
2021/03/16 03:18:53;;;;;;;20.58;4.85;;;5.20;86.60;;;;;;5015677;28;20053;-79
2021/03/16 03:21:49;;;;;;;17.60;4.32;;;5.30;86.60;;;;;;5003224;28;20026;-79
2021/03/16 03:24:23;;;;;;;18.88;4.45;;;5.30;86.60;;;;;;5006303;28;20038;-80
2021/03/16 03:27:06;;;;;;;21.33;4.70;;;5.40;86.60;;;;;;5002333;28;20488;-79
2021/03/16 03:29:33;;;;;;;21.55;5.80;;;5.40;86.40;;;;;;5001652;28;20038;-79
2021/03/16 03:32:00;;;;;;;25.13;5.05;;;5.40;86.40;;;;;;4995924;28;20053;-79
2021/03/16 03:34:27;;;;;;;20.92;4.57;;;5.40;86.40;;;;;;5002270;28;20134;-79
2021/03/16 03:36:55;;;;;;;21.38;3.92;;;5.40;86.40;;;;;;5021290;28;20038;-79
2021/03/16 03:39:22;;;;;;;22.23;4.38;;;5.40;86.30;;;;;;5005376;28;20031;-79
2021/03/16 03:41:53;;;;;;;17.52;3.92;;;5.40;86.40;;;;;;5006737;28;20116;-79
2021/03/16 03:44:20;;;;;;;14.55;4.07;;;5.40;86.30;;;;;;4992311;28;20033;-79
2021/03/16 03:46:47;;;;;;;17.83;4.38;;;5.40;86.30;;;;;;5006479;28;20053;-78
2021/03/16 03:49:13;;;;;;;18.85;4.78;;;5.40;86.40;;;;;;5007032;28;20021;-78
2021/03/16 03:51:40;;;;;;;21.17;5.28;;;5.40;86.40;;;;;;5011873;28;20029;-79
2021/03/16 03:54:06;;;;;;;17.27;4.65;;;5.40;86.50;;;;;;4993211;28;20529;-78
2021/03/16 03:56:35;;;;;;;17.75;4.53;;;5.40;86.30;;;;;;5015054;28;20504;-79
2021/03/16 03:59:02;;;;;;;16.95;4.97;;;5.40;86.30;;;;;;5003173;28;20033;-78
2021/03/16 04:01:30;;;;;;;20.38;4.60;;;5.40;86.30;;;;;;5008837;28;20042;-79
2021/03/16 04:03:56;;;;;;;15.25;4.55;;;5.40;86.20;;;;;;5004438;28;20048;-78
2021/03/16 04:06:24;;;;;;;17.40;3.75;;;5.40;86.30;;;;;;5007021;28;20460;-79
2021/03/16 04:08:51;;;;;;;17.33;3.90;;;5.40;86.30;;;;;;4997674;28;20034;-78
2021/03/16 04:11:19;;;;;;;17.33;4.18;;;5.40;86.30;;;;;;4999543;28;20369;-79
2021/03/16 04:13:45;;;;;;;18.63;3.85;;;5.40;86.30;;;;;;5014949;28;20052;-78
2021/03/16 04:16:12;;;;;;;19.92;4.53;;;5.40;86.30;;;;;;5018119;28;20034;-79
2021/03/16 04:18:39;;;;;;;16.67;4.35;;;5.40;86.40;;;;;;4999687;28;20034;-79
2021/03/16 04:21:06;;;;;;;18.30;4.82;;;5.40;86.30;;;;;;5004765;28;20157;-78
2021/03/16 04:23:32;;;;;;;16.40;4.30;;;5.40;86.30;;;;;;5014507;28;20041;-79
2021/03/16 04:25:58;;;;;;;17.27;4.20;;;5.50;86.30;;;;;;5013685;28;20026;-78
2021/03/16 04:28:25;;;;;;;14.70;4.28;;;5.50;86.30;;;;;;5001771;28;20026;-79
2021/03/16 04:30:52;;;;;;;13.20;3.95;;;5.50;86.30;;;;;;4998312;28;20109;-80
2021/03/16 04:33:19;;;;;;;17.05;4.90;;;5.50;86.30;;;;;;5002553;28;20029;-79
2021/03/16 04:35:45;;;;;;;17.60;4.30;;;5.50;86.30;;;;;;5008459;28;20062;-79
2021/03/16 04:38:11;;;;;;;19.38;5.05;;;5.60;86.30;;;;;;5006962;28;20107;-78
2021/03/16 04:40:37;;;;;;;17.40;4.57;;;5.50;86.30;;;;;;5010095;28;20125;-79
2021/03/16 04:43:04;;;;;;;21.08;6.60;;;5.50;86.50;;;;;;5000210;28;20029;-78
2021/03/16 04:45:30;;;;;;;16.38;4.43;;;5.50;86.60;;;;;;5013247;28;20030;-78
2021/03/16 04:47:55;;;;;;;16.92;4.35;;;5.60;86.50;;;;;;5003574;28;20165;-78
2021/03/16 04:50:21;;;;;;;16.42;4.50;;;5.60;86.40;;;;;;4999999;28;20159;-79
2021/03/16 04:52:47;;;;;;;18.85;4.68;;;5.60;86.30;;;;;;5005651;28;20122;-80
2021/03/16 04:55:13;;;;;;;15.00;4.20;;;5.60;86.20;;;;;;5008452;28;20031;-79
2021/03/16 04:57:39;;;;;;;19.90;4.25;;;5.60;86.20;;;;;;5011186;28;20530;-79
2021/03/16 05:00:05;;;;;;;18.88;4.13;;;5.70;86.20;;;;;;5017264;28;20033;-79
2021/03/16 05:02:31;;;;;;;15.48;3.80;;;5.60;86.10;;;;;;5004667;28;20041;-79
2021/03/16 05:04:57;;;;;;;13.13;3.80;;;5.70;86.20;;;;;;5006008;28;20429;-79
2021/03/16 05:07:22;;;;;;;17.92;4.70;;;5.70;86.20;;;;;;5017566;28;20037;-79
2021/03/16 05:09:48;;;;;;;18.20;5.18;;;5.70;86.20;;;;;;5007793;28;20036;-79
2021/03/16 05:12:13;;;;;;;14.77;4.30;;;5.70;86.20;;;;;;5004631;28;20041;-79
2021/03/16 05:14:39;;;;;;;21.15;5.22;;;5.70;86.20;;;;;;5003164;28;20038;-78
2021/03/16 05:17:05;;;;;;;18.88;5.30;;;5.70;86.20;;;;;;5004273;28;20484;-79
2021/03/16 05:19:31;;;;;;;23.70;5.90;;;5.70;86.20;;;;;;5008430;28;20038;-79
2021/03/16 05:21:56;;;;;;;16.05;6.03;;;5.70;86.10;;;;;;4991503;28;20034;-78
2021/03/16 05:24:22;;;;;;;17.58;5.28;;;5.80;86.00;;;;;;5001481;28;20510;-79
2021/03/16 05:26:47;;;;;;;17.42;6.60;;;5.80;85.90;;;;;;5005145;28;20109;-79
2021/03/16 05:29:13;;;;;;;22.98;7.85;;;5.80;86.00;;;;;;5001157;28;20022;-78
2021/03/16 05:31:39;;;;;;;16.70;7.18;;;5.80;85.80;;;;;;4999574;28;20065;-79
2021/03/16 05:34:04;;;;;;;16.85;7.13;;;5.80;85.70;;;;;;5001393;28;20416;-79
2021/03/16 05:36:30;;;;;;;23.67;8.02;;;5.80;85.80;;;;;;5004662;28;20469;-79
2021/03/16 05:38:56;;;;;;;26.73;8.55;;;5.80;85.70;;;;;;5001688;28;20026;-79
2021/03/16 05:41:21;;;;;;;22.00;9.48;;;5.80;85.70;;;;;;5000617;28;20438;-79
2021/03/16 05:43:48;;;;;;;19.23;8.48;;;5.80;85.70;;;;;;5003633;28;20041;-79
2021/03/16 05:46:15;;;;;;;19.63;9.18;;;5.80;85.80;;;;;;5014336;28;20034;-79
2021/03/16 05:48:46;;;;;;;24.52;9.73;;;5.80;85.70;;;;;;5005185;28;20022;-79
2021/03/16 05:51:13;;;;;;;19.90;8.63;;;5.80;85.60;;;;;;5001182;28;20027;-79
2021/03/16 05:53:38;;;;;;;20.48;9.13;;;5.80;85.50;;;;;;4997340;28;20112;-79
2021/03/16 05:56:05;;;;;;;20.77;9.35;;;5.80;85.60;;;;;;5000517;28;20389;-78
2021/03/16 05:58:31;;;;;;;22.83;10.07;;;5.80;85.70;;;;;;5002631;28;20069;-79
2021/03/16 06:00:57;;;;;;;16.30;8.50;;;5.80;85.70;;;;;;4999512;28;20026;-79
2021/03/16 06:03:22;;;;;;;23.17;10.18;;;5.80;85.70;;;;;;5012597;28;20037;-79
2021/03/16 06:05:51;;;;;;;23.88;9.18;;;5.80;85.70;;;;;;4997846;28;20024;-79
2021/03/16 06:08:17;;;;;;;15.60;8.23;;;5.80;85.70;;;;;;4999225;28;20065;-79
2021/03/16 06:10:44;;;;;;;19.08;9.23;;;5.80;85.60;;;;;;5001760;28;20085;-78
2021/03/16 06:13:11;;;;;;;20.63;9.07;;;5.80;85.70;;;;;;4999041;28;20037;-79
2021/03/16 06:15:37;;;;;;;16.80;7.35;;;5.80;85.70;;;;;;5005830;28;20470;-79
2021/03/16 06:18:03;;;;;;;15.13;7.55;;;5.80;85.80;;;;;;4999888;28;20034;-78
2021/03/16 06:20:30;;;;;;;19.15;7.13;;;5.80;85.80;;;;;;5001180;28;20042;-80
2021/03/16 06:23:09;;;;;;;27.58;8.38;;;5.80;85.80;;;;;;4992673;28;20068;-79
2021/03/16 06:25:40;;;;;;;21.65;6.95;;;5.90;85.70;;;;;;4997937;28;20045;-78
2021/03/16 06:28:10;;;;;;;18.10;7.32;;;5.80;85.80;;;;;;5003080;28;20026;-78
2021/03/16 06:30:36;;;;;;;15.73;6.40;;;5.90;85.90;;;;;;5001542;28;20052;-79
2021/03/16 06:33:03;;;;;;;19.48;6.45;;;5.90;86.00;;;;;;5000832;28;20038;-78
2021/03/16 06:35:29;;;;;;;18.48;7.00;;;5.90;86.10;;;;;;5004970;28;20034;-80
2021/03/16 06:38:11;;;;;;;17.65;7.07;;;5.90;86.10;;;;;;4996425;28;20541;-80
2021/03/16 06:40:36;;;;;;;16.05;6.68;;;6.00;86.20;;;;;;5003309;28;20034;-80
2021/03/16 06:43:10;;;;;;;14.90;6.40;;;6.00;86.20;;;;;;5002087;28;20103;-72
2021/03/16 06:45:39;;;;;;;21.80;7.72;;;6.10;86.20;;;;;;5002095;28;20496;-75
2021/03/16 06:48:25;;;;;;;19.88;7.50;;;6.10;86.20;;;;;;5013811;28;20042;-75
2021/03/16 06:50:52;;;;;;;17.73;7.13;;;6.10;86.20;;;;;;5002995;28;20069;-78
2021/03/16 06:53:21;;;;;;;15.77;6.80;;;6.10;86.20;;;;;;5000235;28;20394;-73
2021/03/16 06:55:57;;;;;;;20.30;9.00;;;6.20;86.20;;;;;;5000786;28;20357;-73
2021/03/16 06:58:31;;;;;;;18.45;9.10;;;6.10;86.00;;;;;;5004988;28;20029;-73
2021/03/16 07:01:07;;;;;;;15.98;7.57;;;6.20;86.00;;;;;;5008482;28;20030;-82
2021/03/16 07:03:32;;;;;;;16.02;6.55;;;6.20;86.00;;;;;;5011942;28;20054;-73
2021/03/16 07:06:15;;;;;;;20.55;6.53;;;6.30;86.10;;;;;;5001308;28;20092;-81
2021/03/16 07:08:42;;;;;;;17.40;7.22;;;6.30;86.10;;;;;;4995624;28;20537;-76
2021/03/16 07:11:19;;;;;;;13.93;6.57;;;6.30;86.20;;;;;;4999861;28;20168;-78
2021/03/16 07:13:46;;;;;;;18.13;7.38;;;6.40;86.20;;;;;;5004587;28;20124;-77
2021/03/16 07:16:13;;;;;;;15.95;6.78;;;6.40;86.20;;;;;;5001538;28;20573;-79
2021/03/16 07:18:44;;;;;;;14.98;7.60;;;6.40;86.20;;;;;;5017282;28;20038;-75
2021/03/16 07:21:21;;;;;;;15.50;6.32;;;6.40;86.30;;;;;;5004114;28;20373;-75
2021/03/16 07:23:59;;;;;;;15.40;5.80;;;6.50;86.20;;;;;;5001032;28;20474;-76
2021/03/16 07:26:26;;;;;;;14.73;6.28;;;6.50;86.20;;;;;;5002868;28;20369;-74
2021/03/16 07:28:51;;;;;;;13.80;6.30;;;6.60;86.20;;;;;;4999947;28;20034;-75
2021/03/16 07:31:18;;;;;;;13.32;5.85;;;6.60;86.10;;;;;;5012177;28;20029;-75
2021/03/16 07:33:44;;;;;;;20.02;6.85;;;6.70;86.10;;;;;;5006367;28;20358;-77
2021/03/16 07:36:10;;;;;;;17.45;5.88;;;6.80;86.00;;;;;;5005391;28;20044;-81
2021/03/16 07:38:38;;;;;;;14.23;6.10;;;6.80;85.90;;;;;;5005298;28;20041;-76
2021/03/16 07:41:05;;;;;;;13.98;6.15;;;6.80;85.90;;;;;;5008699;28;20022;-82
2021/03/16 07:43:36;;;;;;;11.80;5.93;;;6.80;85.90;;;;;;5010289;28;20128;-84
2021/03/16 07:46:19;;;;;;;14.20;6.93;;;6.90;85.90;;;;;;5002370;28;20034;-79
2021/03/16 07:48:55;;;;;;;11.75;5.78;;;6.90;85.80;;;;;;5016882;28;20026;-76
2021/03/16 07:51:31;;;;;;;16.77;6.75;;;7.00;85.60;;;;;;5007794;28;20038;-78
2021/03/16 07:54:03;;;;;;;18.60;8.32;;;7.00;85.50;;;;;;5008979;28;20125;-77
2021/03/16 07:56:31;;;;;;;17.60;7.10;;;7.00;85.40;;;;;;5007033;28;20504;-77
2021/03/16 07:58:57;;;;;;;17.65;7.13;;;7.00;85.30;;;;;;5009272;28;20358;-80
2021/03/16 08:01:23;;;;;;;14.75;6.38;;;7.00;85.20;;;;;;5002768;28;20036;-74
2021/03/16 08:03:50;;;;;;;13.43;6.45;;;7.00;84.90;;;;;;5010138;28;20355;-73
2021/03/16 08:06:21;;;;;;;13.02;6.05;;;7.10;85.00;;;;;;5007101;28;20034;-75
2021/03/16 08:08:49;;;;;;;14.13;7.10;;;7.10;84.80;;;;;;5004302;28;20121;-74
2021/03/16 08:11:14;;;;;;;15.23;7.68;;;7.10;84.80;;;;;;5026283;28;20026;-74
2021/03/16 08:13:40;;;;;;;13.40;6.88;;;7.10;85.00;;;;;;5008417;28;20457;-75
2021/03/16 08:16:13;;;;;;;13.43;6.13;;;7.10;84.80;;;;;;5002552;28;20077;-73
2021/03/16 08:18:39;;;;;;;15.55;6.72;;;7.10;84.90;;;;;;5020605;28;20030;-73
2021/03/16 08:21:10;;;;;;;13.82;7.80;;;7.10;84.50;;;;;;5008005;28;20370;-72
2021/03/16 08:23:36;;;;;;;14.52;7.30;;;7.20;84.50;;;;;;5012221;28;20040;-72
2021/03/16 08:26:03;;;;;;;11.50;6.00;;;7.20;84.50;;;;;;5007540;28;20057;-72
2021/03/16 08:28:29;;;;;;;13.50;6.25;;;7.30;84.50;;;;;;5004426;28;20474;-73
2021/03/16 08:30:55;;;;;;;15.82;5.85;;;7.40;84.60;;;;;;5008135;28;20117;-75
2021/03/16 08:33:21;;;;;;;10.68;5.18;;;7.30;83.90;;;;;;5004734;28;20050;-76
2021/03/16 08:35:55;;;;;;;11.45;5.28;;;7.40;84.20;;;;;;4999752;28;20050;-72
2021/03/16 08:38:30;;;;;;;9.95;4.95;;;7.50;84.10;;;;;;5014402;28;20041;-73
2021/03/16 08:41:16;;;;;;;13.77;4.75;;;7.60;84.00;;;;;;5011924;28;20453;-78
2021/03/16 08:43:47;;;;;;;11.85;4.55;;;7.60;83.80;;;;;;5007912;28;20072;-73
2021/03/16 08:46:13;;;;;;;10.00;4.22;;;7.70;84.00;;;;;;5009709;28;20383;-73
2021/03/16 08:48:42;;;;;;;11.18;4.45;;;7.70;83.90;;;;;;5002805;28;20389;-76
2021/03/16 08:51:07;;;;;;;12.57;3.88;;;7.70;83.70;;;;;;5006351;28;20037;-73
2021/03/16 08:53:33;;;;;;;12.27;4.47;;;7.70;83.80;;;;;;5006457;28;20037;-74
2021/03/16 08:55:59;;;;;;;10.90;4.82;;;7.70;83.90;;;;;;5004902;28;20098;-74
2021/03/16 08:58:26;;;;;;;17.35;6.15;;;7.70;83.90;;;;;;4998601;28;20029;-73
2021/03/16 09:00:51;;;;;;;15.90;6.57;;;7.60;84.00;;;;;;5025999;28;20030;-73
2021/03/16 09:03:28;;;;;;;15.80;6.13;;;7.70;84.50;;;;;;5010280;28;20048;-73
2021/03/16 09:05:55;;;;;;;14.77;5.88;;;7.70;84.60;;;;;;5009024;28;20373;-73
2021/03/16 09:08:21;;;;;;;11.70;6.13;;;7.80;84.50;;;;;;5004566;28;20045;-74
2021/03/16 09:10:48;;;;;;;14.60;6.55;;;7.70;84.10;;;;;;4998867;28;20433;-73
2021/03/16 09:13:27;;;;;;;13.40;6.03;;;7.70;84.50;;;;;;4993861;28;20042;-74
2021/03/16 09:15:53;;;;;;;10.60;5.93;;;7.70;84.60;;;;;;5003660;28;20029;-72
2021/03/16 09:18:21;;;;;;;14.63;6.72;;;7.70;84.70;;;;;;5003449;28;20029;-72
2021/03/16 09:20:47;;;;;;;14.02;6.97;;;7.80;84.70;;;;;;5007080;28;20034;-75
2021/03/16 09:23:14;;;;;;;15.13;6.55;;;7.80;84.80;;;;;;5024526;28;20037;-72
2021/03/16 09:25:45;;;;;;;14.20;5.90;;;7.80;83.70;;;;;;5002328;28;20072;-72
2021/03/16 09:28:13;;;;;;;12.93;6.28;;;7.90;84.40;;;;;;5009695;28;20041;-74
2021/03/16 09:30:44;;;;;;;14.43;7.10;;;8.10;83.90;;;;;;5026561;28;20084;-75
2021/03/16 09:33:12;;;;;;;18.08;8.63;;;8.10;83.90;;;;;;5010011;28;20061;-73
2021/03/16 09:35:38;;;;;;;15.10;9.05;;;8.20;83.10;;;;;;5006882;28;20037;-73
2021/03/16 09:38:05;;;;;;;16.35;8.40;;;8.20;83.00;;;;;;5007043;28;20445;-73
2021/03/16 09:40:36;;;;;;;17.35;10.48;;;8.30;83.40;;;;;;5003290;28;20452;-74
2021/03/16 09:43:03;;;;;;;18.50;12.38;;;8.40;83.40;;;;;;5000788;28;20046;-75
2021/03/16 09:45:31;;;;;;;19.63;14.38;;;8.50;83.20;;;;;;4999089;28;20042;-74
2021/03/16 09:47:59;;;;;;;17.40;14.25;;;8.60;83.30;;;;;;5013047;28;20086;-74
2021/03/16 09:50:36;;;;;;;21.08;14.88;;;8.50;83.00;;;;;;4996484;28;20042;-74
2021/03/16 09:53:06;;;;;;;22.70;15.95;;;8.50;83.30;;;;;;4994422;28;20066;-73
2021/03/16 09:55:33;;;;;;;19.95;14.65;;;8.60;83.70;;;;;;4999561;28;20052;-72
2021/03/16 09:58:00;;;;;;;24.08;14.40;;;8.60;83.50;;;;;;4993574;28;20044;-74
2021/03/16 10:00:27;;;;;;;19.98;14.48;;;8.50;83.00;;;;;;5000475;28;20062;-74
2021/03/16 10:03:08;;;;;;;24.45;15.35;;;8.50;83.20;;;;;;4995533;28;20038;-79
2021/03/16 10:05:34;;;;;;;19.80;15.82;;;8.50;83.30;;;;;;5012745;28;20148;-76
2021/03/16 10:08:01;;;;;;;21.20;16.35;;;8.50;83.20;;;;;;4996990;28;20131;-73
2021/03/16 10:10:27;;;;;;;20.50;16.38;;;8.40;82.80;;;;;;4997956;28;20116;-73
2021/03/16 10:13:03;;;;;;;22.08;17.02;;;8.40;83.10;;;;;;4992386;28;20118;-73
2021/03/16 10:15:39;;;;;;;24.50;17.88;;;8.40;83.00;;;;;;4997507;28;20046;-75
2021/03/16 10:18:07;;;;;;;22.00;17.35;;;8.40;83.50;;;;;;4996469;28;20038;-74
2021/03/16 10:20:39;;;;;;;17.95;14.65;;;8.40;83.10;;;;;;5002011;28;20091;-74
2021/03/16 10:23:10;;;;;;;21.95;15.25;;;8.30;83.40;;;;;;5012908;28;20385;-73
2021/03/16 10:25:38;;;;;;;18.85;14.63;;;8.30;83.10;;;;;;5004804;28;20048;-72
2021/03/16 10:28:06;;;;;;;16.70;12.75;;;8.40;83.50;;;;;;4991874;28;20060;-74
2021/03/16 10:30:42;;;;;;;15.57;12.27;;;8.30;83.20;;;;;;4996994;28;20049;-76
2021/03/16 10:33:09;;;;;;;14.38;11.73;;;8.30;83.00;;;;;;4994553;28;20038;-74
2021/03/16 10:35:36;;;;;;;15.95;10.98;;;8.30;83.20;;;;;;4993626;28;20037;-74
2021/03/16 10:38:03;;;;;;;16.52;11.25;;;8.30;82.70;;;;;;5013171;28;20037;-74
2021/03/16 10:40:30;;;;;;;12.20;9.50;;;8.30;83.20;;;;;;4993125;28;20121;-74
2021/03/16 10:42:56;;;;;;;14.88;9.15;;;8.30;83.40;;;;;;4996328;28;20390;-74
2021/03/16 10:45:22;;;;;;;12.75;9.00;;;8.20;83.20;;;;;;4996923;28;20026;-75
2021/03/16 10:47:47;;;;;;;12.05;7.60;;;8.20;83.50;;;;;;4996843;28;20125;-74
2021/03/16 10:50:14;;;;;;;14.85;7.43;;;8.10;83.30;;;;;;4993998;28;20038;-73
2021/03/16 10:52:39;;;;;;;12.45;7.55;;;8.20;83.60;;;;;;4992863;28;20034;-73
2021/03/16 10:55:06;;;;;;;12.55;7.72;;;8.20;83.90;;;;;;4991561;28;20053;-73
2021/03/16 10:57:33;;;;;;;12.52;7.97;;;8.30;83.80;;;;;;4999860;28;20038;-73
2021/03/16 11:00:03;;;;;;;15.23;8.23;;;8.40;83.50;;;;;;4992338;28;20026;-74
2021/03/16 11:02:29;;;;;;;15.75;8.63;;;8.40;83.60;;;;;;4994907;28;20046;-73
2021/03/16 11:04:55;;;;;;;13.57;7.68;;;8.50;83.80;;;;;;5002008;28;20037;-72
2021/03/16 11:07:21;;;;;;;14.88;8.85;;;8.60;83.40;;;;;;4998273;28;20121;-76
2021/03/16 11:09:47;;;;;;;11.10;8.50;;;8.70;82.50;;;;;;5001816;28;20026;-72
2021/03/16 11:12:13;;;;;;;14.70;9.05;;;8.70;82.80;;;;;;4994852;28;20029;-75
2021/03/16 11:14:39;;;;;;;14.18;9.13;;;8.70;82.30;;;;;;4995026;28;20034;-73
2021/03/16 11:17:04;;;;;;;12.82;9.10;;;8.60;83.10;;;;;;4999052;28;20142;-75
2021/03/16 11:19:30;;;;;;;14.40;9.40;;;8.70;83.10;;;;;;4997934;28;20054;-76
2021/03/16 11:21:55;;;;;;;16.60;11.38;;;8.60;82.90;;;;;;4998814;28;20176;-72
2021/03/16 11:24:21;;;;;;;19.52;13.15;;;8.40;82.90;;;;;;4998154;28;20077;-72
2021/03/16 11:26:47;;;;;;;25.65;16.20;;;8.50;83.50;;;;;;5003102;28;20464;-76
2021/03/16 11:29:13;;;;;;;21.85;15.68;;;8.50;83.80;;;;;;4997514;28;20041;-73
2021/03/16 11:31:39;;;;;;;19.90;15.13;;;8.50;84.00;;;;;;4994265;28;20034;-74
2021/03/16 11:34:04;;;;;;;18.85;15.18;;;8.60;83.70;;;;;;4992965;28;20599;-72
2021/03/16 11:36:30;;;;;;;20.30;15.30;;;8.70;84.10;;;;;;5003616;28;20030;-73
2021/03/16 11:38:56;;;;;;;22.95;17.25;;;8.80;83.70;;;;;;4995074;28;20110;-75
2021/03/16 11:41:22;;;;;;;18.90;14.45;;;8.90;83.40;;;;;;5006584;28;20079;-73
2021/03/16 11:43:48;;;;;;;19.88;15.30;;;9.00;82.70;;;;;;5004368;28;20484;-74
2021/03/16 11:46:14;;;;;;;17.42;13.38;;;8.80;82.40;;;;;;4997167;28;20034;-73
2021/03/16 11:48:39;;;;;;;17.85;13.13;;;8.40;82.60;;;;;;5003929;28;20033;-72
2021/03/16 11:51:05;;;;;;;18.92;14.63;;;8.30;83.10;;;;;;5005086;28;20389;-72
2021/03/16 11:53:31;;;;;;;20.20;14.55;;;8.30;83.70;;;;;;5005954;28;20488;-72
2021/03/16 11:56:00;;;;;;;20.08;14.75;;;8.30;83.90;;;;;;4998456;28;20030;-74
2021/03/16 11:58:25;;;;;;;20.00;15.63;;;8.30;83.80;;;;;;4998169;28;20025;-73
2021/03/16 12:00:52;;;;;;;21.30;14.70;;;8.20;84.10;;;;;;4999854;28;20516;-72
2021/03/16 12:03:18;;;;;;;22.83;16.45;;;8.20;84.20;;;;;;4997747;28;20405;-72
2021/03/16 12:05:44;;;;;;;23.77;17.20;;;8.20;84.40;;;;;;4998243;28;20029;-73
2021/03/16 12:08:10;;;;;;;22.52;16.27;;;8.30;84.60;;;;;;5012062;28;20084;-72
2021/03/16 12:10:36;;;;;;;23.65;14.90;;;8.30;84.70;;;;;;5001816;28;20073;-73
2021/03/16 12:13:01;;;;;;;25.00;16.70;;;8.20;83.50;;;;;;4995283;28;20022;-71
2021/03/16 12:15:27;;;;;;;19.88;13.85;;;8.30;83.80;;;;;;5001911;28;20026;-72
2021/03/16 12:17:52;;;;;;;18.02;13.57;;;8.30;83.50;;;;;;4999628;28;20045;-72
2021/03/16 12:20:18;;;;;;;21.00;13.55;;;8.20;83.90;;;;;;5006653;28;20045;-72
2021/03/16 12:22:44;;;;;;;17.40;13.93;;;8.20;83.80;;;;;;5006074;28;20728;-73
2021/03/16 12:25:11;;;;;;;22.52;15.88;;;8.30;84.10;;;;;;4996536;28;20045;-75
2021/03/16 12:27:38;;;;;;;19.02;14.38;;;8.30;83.90;;;;;;5015879;28;20030;-72
2021/03/16 12:30:06;;;;;;;22.05;14.88;;;8.20;84.00;;;;;;5000032;28;20029;-73
2021/03/16 12:32:31;;;;;;;24.27;14.80;;;8.20;83.60;;;;;;5001032;28;20062;-73
2021/03/16 12:34:57;;;;;;;20.13;15.32;;;8.20;84.10;;;;;;5000586;28;20073;-77
2021/03/16 12:37:23;;;;;;;22.25;16.15;;;8.30;84.00;;;;;;5001141;28;20544;-75
2021/03/16 12:39:48;;;;;;;22.60;17.13;;;8.30;84.10;;;;;;5005290;28;20056;-72
2021/03/16 12:42:14;;;;;;;25.00;19.45;;;8.30;84.10;;;;;;4996215;28;20073;-72
2021/03/16 12:44:41;;;;;;;24.42;18.55;;;8.20;84.10;;;;;;4999289;28;20026;-74
2021/03/16 12:47:06;;;;;;;25.52;19.30;;;8.10;84.00;;;;;;5014790;28;20037;-78
2021/03/16 12:49:33;;;;;;;22.77;18.05;;;8.20;84.70;;;;;;5005265;28;20042;-74